sensor_id;sensor_type;location;lat;lon;timestamp;pressure;altitude;pressure_sealevel;temperature;humidity
6134;BME280;3098;42.678;23.364;2022-11-03T00:00:35;95433.34;;;15.87;52.35
6134;BME280;3098;42.678;23.364;2022-11-03T00:03:03;95382.19;;;15.56;52.35
6134;BME280;3098;42.678;23.364;2022-11-03T00:05:32;95377.38;;;15.49;52.67
6134;BME280;3098;42.678;23.364;2022-11-03T00:08:16;95438.63;;;15.95;52.42
6134;BME280;3098;42.678;23.364;2022-11-03T00:10:44;95444.13;;;15.99;52.12
6134;BME280;3098;42.678;23.364;2022-11-03T00:13:13;95287.19;;;14.96;52.51
6134;BME280;3098;42.678;23.364;2022-11-03T00:15:47;95420.41;;;15.77;52.54
6134;BME280;3098;42.678;23.364;2022-11-03T00:18:15;95441.84;;;15.89;52.33
6134;BME280;3098;42.678;23.364;2022-11-03T00:20:42;95376.75;;;15.43;52.62
6134;BME280;3098;42.678;23.364;2022-11-03T00:23:09;95441.84;;;15.89;52.81
6134;BME280;3098;42.678;23.364;2022-11-03T00:25:36;95440.34;;;16.00;53.39
6134;BME280;3098;42.678;23.364;2022-11-03T00:28:03;95366.06;;;15.64;53.83
6134;BME280;3098;42.678;23.364;2022-11-03T00:30:32;95418.28;;;16.03;54.66
6134;BME280;3098;42.678;23.364;2022-11-03T00:32:59;95427.84;;;16.04;54.58
6134;BME280;3098;42.678;23.364;2022-11-03T00:35:26;95440.38;;;16.12;54.69
6134;BME280;3098;42.678;23.364;2022-11-03T00:37:53;95410.34;;;15.94;54.67
6134;BME280;3098;42.678;23.364;2022-11-03T00:40:21;95419.25;;;15.98;55.03
6134;BME280;3098;42.678;23.364;2022-11-03T00:42:48;95441.50;;;16.11;55.01
6134;BME280;3098;42.678;23.364;2022-11-03T00:45:15;95429.66;;;16.00;54.86
6134;BME280;3098;42.678;23.364;2022-11-03T00:47:44;95438.56;;;16.04;55.04
6134;BME280;3098;42.678;23.364;2022-11-03T00:50:25;95423.78;;;15.86;55.31
6134;BME280;3098;42.678;23.364;2022-11-03T00:52:52;95453.06;;;16.03;55.03
6134;BME280;3098;42.678;23.364;2022-11-03T00:55:19;95444.91;;;15.99;54.88
6134;BME280;3098;42.678;23.364;2022-11-03T00:57:46;95444.13;;;15.99;54.73
6134;BME280;3098;42.678;23.364;2022-11-03T01:00:13;95448.75;;;15.90;55.18
6134;BME280;3098;42.678;23.364;2022-11-03T01:02:41;95447.53;;;15.87;55.21
6134;BME280;3098;42.678;23.364;2022-11-03T01:05:11;95451.78;;;15.88;55.29
6134;BME280;3098;42.678;23.364;2022-11-03T01:07:56;95405.41;;;15.64;55.74
6134;BME280;3098;42.678;23.364;2022-11-03T01:10:23;95435.78;;;15.80;56.34
6134;BME280;3098;42.678;23.364;2022-11-03T01:12:51;95443.41;;;15.90;57.56
6134;BME280;3098;42.678;23.364;2022-11-03T01:15:18;95448.44;;;15.91;59.10
6134;BME280;3098;42.678;23.364;2022-11-03T01:17:45;95431.69;;;15.82;59.85
6134;BME280;3098;42.678;23.364;2022-11-03T01:20:14;95448.88;;;15.93;60.49
6134;BME280;3098;42.678;23.364;2022-11-03T01:22:41;95444.66;;;15.92;60.78
6134;BME280;3098;42.678;23.364;2022-11-03T01:25:08;95440.16;;;15.84;61.78
6134;BME280;3098;42.678;23.364;2022-11-03T01:27:36;95356.34;;;15.18;62.50
6134;BME280;3098;42.678;23.364;2022-11-03T01:30:03;95445.56;;;15.76;62.62
6134;BME280;3098;42.678;23.364;2022-11-03T01:32:31;95444.69;;;15.72;62.74
6134;BME280;3098;42.678;23.364;2022-11-03T01:34:58;95441.53;;;15.70;63.21
6134;BME280;3098;42.678;23.364;2022-11-03T01:37:26;95446.75;;;15.66;63.29
6134;BME280;3098;42.678;23.364;2022-11-03T01:39:54;95446.94;;;15.61;63.42
6134;BME280;3098;42.678;23.364;2022-11-03T01:42:22;95436.44;;;15.56;63.31
6134;BME280;3098;42.678;23.364;2022-11-03T01:44:50;95455.88;;;15.65;63.46
6134;BME280;3098;42.678;23.364;2022-11-03T01:47:21;95445.09;;;15.53;64.16
6134;BME280;3098;42.678;23.364;2022-11-03T01:49:55;95450.72;;;15.60;64.59
6134;BME280;3098;42.678;23.364;2022-11-03T01:52:29;95459.25;;;15.53;65.63
6134;BME280;3098;42.678;23.364;2022-11-03T01:55:01;95455.53;;;15.46;66.08
6134;BME280;3098;42.678;23.364;2022-11-03T01:57:33;95446.03;;;15.28;66.97
6134;BME280;3098;42.678;23.364;2022-11-03T02:00:03;95460.13;;;15.37;67.73
6134;BME280;3098;42.678;23.364;2022-11-03T02:02:32;95448.84;;;15.31;68.01
6134;BME280;3098;42.678;23.364;2022-11-03T02:05:01;95447.59;;;15.29;68.46
6134;BME280;3098;42.678;23.364;2022-11-03T02:07:35;95398.09;;;14.73;69.04
6134;BME280;3098;42.678;23.364;2022-11-03T02:10:05;95416.78;;;15.02;69.25
6134;BME280;3098;42.678;23.364;2022-11-03T02:12:33;95460.88;;;15.17;70.01
6134;BME280;3098;42.678;23.364;2022-11-03T02:15:03;95459.13;;;15.21;70.23
6134;BME280;3098;42.678;23.364;2022-11-03T02:17:32;95443.66;;;15.06;70.69
6134;BME280;3098;42.678;23.364;2022-11-03T02:20:02;95399.94;;;14.81;70.84
6134;BME280;3098;42.678;23.364;2022-11-03T02:22:43;95457.94;;;15.10;71.12
6134;BME280;3098;42.678;23.364;2022-11-03T02:25:31;95465.66;;;15.03;71.67
6134;BME280;3098;42.678;23.364;2022-11-03T02:27:59;95465.19;;;15.01;71.79
6134;BME280;3098;42.678;23.364;2022-11-03T02:30:32;95454.81;;;14.99;71.76
6134;BME280;3098;42.678;23.364;2022-11-03T02:33:05;95457.50;;;14.99;71.73
6134;BME280;3098;42.678;23.364;2022-11-03T02:38:09;95400.66;;;14.61;72.06
6134;BME280;3098;42.678;23.364;2022-11-03T02:40:44;95453.91;;;14.95;72.44
6134;BME280;3098;42.678;23.364;2022-11-03T02:43:13;95441.38;;;14.87;72.48
6134;BME280;3098;42.678;23.364;2022-11-03T02:45:41;95431.22;;;14.72;72.99
6134;BME280;3098;42.678;23.364;2022-11-03T02:48:10;95453.81;;;14.83;73.11
6134;BME280;3098;42.678;23.364;2022-11-03T02:50:40;95452.19;;;14.90;73.52
6134;BME280;3098;42.678;23.364;2022-11-03T02:53:10;95441.72;;;14.77;73.81
6134;BME280;3098;42.678;23.364;2022-11-03T02:55:47;95454.09;;;14.81;73.56
6134;BME280;3098;42.678;23.364;2022-11-03T02:58:18;95438.31;;;14.68;73.68
6134;BME280;3098;42.678;23.364;2022-11-03T03:00:52;95449.28;;;14.75;73.37
6134;BME280;3098;42.678;23.364;2022-11-03T03:03:24;95447.53;;;14.79;73.27
6134;BME280;3098;42.678;23.364;2022-11-03T03:05:56;95433.28;;;14.66;73.40
6134;BME280;3098;42.678;23.364;2022-11-03T03:08:29;95417.94;;;14.55;73.74
6134;BME280;3098;42.678;23.364;2022-11-03T03:10:59;95413.28;;;14.43;73.70
6134;BME280;3098;42.678;23.364;2022-11-03T03:13:29;95445.97;;;14.78;73.38
6134;BME280;3098;42.678;23.364;2022-11-03T03:16:11;95430.94;;;14.65;72.69
6134;BME280;3098;42.678;23.364;2022-11-03T03:18:46;95434.53;;;14.69;72.69
6134;BME280;3098;42.678;23.364;2022-11-03T03:21:20;95453.19;;;14.77;73.02
6134;BME280;3098;42.678;23.364;2022-11-03T03:23:51;95395.03;;;14.45;72.55
6134;BME280;3098;42.678;23.364;2022-11-03T03:26:25;95448.66;;;14.78;73.23
6134;BME280;3098;42.678;23.364;2022-11-03T03:28:56;95450.19;;;14.79;73.28
6134;BME280;3098;42.678;23.364;2022-11-03T03:31:26;95459.63;;;14.76;73.39
6134;BME280;3098;42.678;23.364;2022-11-03T03:33:56;95455.25;;;14.72;73.77
6134;BME280;3098;42.678;23.364;2022-11-03T03:36:26;95398.97;;;14.30;74.05
6134;BME280;3098;42.678;23.364;2022-11-03T03:38:56;95399.94;;;14.26;74.42
6134;BME280;3098;42.678;23.364;2022-11-03T03:41:28;95433.66;;;14.48;74.53
6134;BME280;3098;42.678;23.364;2022-11-03T03:43:59;95456.91;;;14.56;75.10
6134;BME280;3098;42.678;23.364;2022-11-03T03:46:31;95458.94;;;14.50;75.52
6134;BME280;3098;42.678;23.364;2022-11-03T03:48:59;95413.31;;;14.17;75.61
6134;BME280;3098;42.678;23.364;2022-11-03T03:51:27;95438.88;;;14.27;75.78
6134;BME280;3098;42.678;23.364;2022-11-03T03:53:55;95439.03;;;14.22;76.38
6134;BME280;3098;42.678;23.364;2022-11-03T03:56:28;95426.03;;;14.03;77.08
6134;BME280;3098;42.678;23.364;2022-11-03T03:58:57;95437.50;;;14.04;77.54
6134;BME280;3098;42.678;23.364;2022-11-03T04:01:24;95375.59;;;13.64;77.58
6134;BME280;3098;42.678;23.364;2022-11-03T04:03:51;95422.13;;;13.92;78.39
6134;BME280;3098;42.678;23.364;2022-11-03T04:06:18;95458.06;;;14.03;78.75
6134;BME280;3098;42.678;23.364;2022-11-03T04:08:45;95441.75;;;13.88;79.06
6134;BME280;3098;42.678;23.364;2022-11-03T04:11:13;95463.22;;;14.00;79.23
6134;BME280;3098;42.678;23.364;2022-11-03T04:13:59;95467.47;;;13.75;80.03
6134;BME280;3098;42.678;23.364;2022-11-03T04:16:43;95471.72;;;13.76;80.66
6134;BME280;3098;42.678;23.364;2022-11-03T04:19:28;95461.34;;;13.74;81.11
6134;BME280;3098;42.678;23.364;2022-11-03T04:22:13;95469.34;;;13.66;81.87
6134;BME280;3098;42.678;23.364;2022-11-03T04:24:43;95456.50;;;13.51;82.41
6134;BME280;3098;42.678;23.364;2022-11-03T04:27:30;95461.03;;;13.59;82.96
6134;BME280;3098;42.678;23.364;2022-11-03T04:30:13;95463.38;;;13.52;83.75
6134;BME280;3098;42.678;23.364;2022-11-03T04:32:42;95463.53;;;13.55;83.89
6134;BME280;3098;42.678;23.364;2022-11-03T04:35:15;95427.16;;;13.25;84.22
6134;BME280;3098;42.678;23.364;2022-11-03T04:37:43;95445.81;;;13.42;84.39
6134;BME280;3098;42.678;23.364;2022-11-03T04:40:13;95444.22;;;13.33;84.72
6134;BME280;3098;42.678;23.364;2022-11-03T04:42:45;95456.16;;;13.44;85.18
6134;BME280;3098;42.678;23.364;2022-11-03T04:45:22;95459.44;;;13.41;85.35
6134;BME280;3098;42.678;23.364;2022-11-03T04:47:50;95404.53;;;13.05;85.53
6134;BME280;3098;42.678;23.364;2022-11-03T04:50:21;95364.94;;;12.64;86.15
6134;BME280;3098;42.678;23.364;2022-11-03T04:52:52;95330.25;;;12.30;86.45
6134;BME280;3098;42.678;23.364;2022-11-03T04:55:20;95421.38;;;12.92;86.90
6134;BME280;3098;42.678;23.364;2022-11-03T04:57:48;95467.69;;;13.13;87.17
6134;BME280;3098;42.678;23.364;2022-11-03T05:00:20;95470.84;;;13.24;87.17
6134;BME280;3098;42.678;23.364;2022-11-03T05:02:48;95451.50;;;13.01;87.35
6134;BME280;3098;42.678;23.364;2022-11-03T05:05:18;95410.66;;;12.66;87.79
6134;BME280;3098;42.678;23.364;2022-11-03T05:07:46;95426.22;;;12.82;88.28
6134;BME280;3098;42.678;23.364;2022-11-03T05:10:16;95463.47;;;13.12;88.00
6134;BME280;3098;42.678;23.364;2022-11-03T05:12:45;95445.38;;;13.01;88.13
6134;BME280;3098;42.678;23.364;2022-11-03T05:15:31;95475.06;;;13.16;88.18
6134;BME280;3098;42.678;23.364;2022-11-03T05:18:15;95476.47;;;13.14;87.88
6134;BME280;3098;42.678;23.364;2022-11-03T05:20:48;95479.09;;;13.05;88.45
6134;BME280;3098;42.678;23.364;2022-11-03T05:23:19;95480.38;;;13.08;88.15
6134;BME280;3098;42.678;23.364;2022-11-03T05:25:52;95456.09;;;13.09;86.03
6134;BME280;3098;42.678;23.364;2022-11-03T05:28:23;95480.31;;;13.47;84.54
6134;BME280;3098;42.678;23.364;2022-11-03T05:30:53;95483.47;;;13.66;83.57
6134;BME280;3098;42.678;23.364;2022-11-03T05:33:30;95477.34;;;13.92;81.40
6134;BME280;3098;42.678;23.364;2022-11-03T05:36:02;95478.88;;;14.53;78.12
6134;BME280;3098;42.678;23.364;2022-11-03T05:38:32;95495.91;;;15.24;74.43
6134;BME280;3098;42.678;23.364;2022-11-03T05:41:00;95499.47;;;15.66;71.45
6134;BME280;3098;42.678;23.364;2022-11-03T05:43:27;95436.69;;;15.84;69.10
6134;BME280;3098;42.678;23.364;2022-11-03T05:46:00;95506.59;;;16.56;66.37
6134;BME280;3098;42.678;23.364;2022-11-03T05:48:33;95461.69;;;16.74;64.61
6134;BME280;3098;42.678;23.364;2022-11-03T05:51:12;95504.34;;;17.52;62.20
6134;BME280;3098;42.678;23.364;2022-11-03T05:53:41;95508.34;;;17.94;58.45
6134;BME280;3098;42.678;23.364;2022-11-03T05:56:14;95474.94;;;18.19;56.10
6134;BME280;3098;42.678;23.364;2022-11-03T05:58:43;95519.31;;;18.84;54.52
6134;BME280;3098;42.678;23.364;2022-11-03T06:01:18;95527.84;;;19.02;54.08
6134;BME280;3098;42.678;23.364;2022-11-03T06:03:47;95526.72;;;17.44;57.58
6134;BME280;3098;42.678;23.364;2022-11-03T06:06:17;95352.53;;;15.81;60.79
6134;BME280;3098;42.678;23.364;2022-11-03T06:08:46;95485.53;;;16.67;61.29
6134;BME280;3098;42.678;23.364;2022-11-03T06:11:20;95445.16;;;16.39;60.43
6134;BME280;3098;42.678;23.364;2022-11-03T06:13:49;95509.72;;;16.91;60.43
6134;BME280;3098;42.678;23.364;2022-11-03T06:16:33;95547.63;;;17.50;58.98
6134;BME280;3098;42.678;23.364;2022-11-03T06:19:13;95495.97;;;17.90;57.33
6134;BME280;3098;42.678;23.364;2022-11-03T06:21:43;95501.56;;;18.24;54.98
6134;BME280;3098;42.678;23.364;2022-11-03T06:24:13;95484.22;;;18.77;51.46
6134;BME280;3098;42.678;23.364;2022-11-03T06:26:42;95472.59;;;18.89;51.03
6134;BME280;3098;42.678;23.364;2022-11-03T06:29:14;95503.72;;;20.03;49.17
6134;BME280;3098;42.678;23.364;2022-11-03T06:31:44;95549.72;;;20.48;49.22
6134;BME280;3098;42.678;23.364;2022-11-03T06:34:35;95552.75;;;21.27;47.33
6134;BME280;3098;42.678;23.364;2022-11-03T06:37:18;95558.16;;;20.47;47.73
6134;BME280;3098;42.678;23.364;2022-11-03T06:39:46;95561.84;;;19.10;50.96
6134;BME280;3098;42.678;23.364;2022-11-03T06:42:15;95559.34;;;19.17;51.16
6134;BME280;3098;42.678;23.364;2022-11-03T06:44:45;95554.28;;;19.43;50.37
6134;BME280;3098;42.678;23.364;2022-11-03T06:47:24;95548.94;;;20.67;46.54
6134;BME280;3098;42.678;23.364;2022-11-03T06:49:53;95527.38;;;19.78;48.53
6134;BME280;3098;42.678;23.364;2022-11-03T06:52:26;95561.88;;;20.23;48.81
6134;BME280;3098;42.678;23.364;2022-11-03T06:55:20;95553.59;;;19.97;50.42
6134;BME280;3098;42.678;23.364;2022-11-03T06:57:50;95565.94;;;21.09;46.24
6134;BME280;3098;42.678;23.364;2022-11-03T07:00:20;95560.69;;;21.88;46.32
6134;BME280;3098;42.678;23.364;2022-11-03T07:02:54;95473.81;;;20.66;45.88
6134;BME280;3098;42.678;23.364;2022-11-03T07:05:24;95554.19;;;20.06;49.35
6134;BME280;3098;42.678;23.364;2022-11-03T07:07:54;95550.25;;;20.38;48.88
6134;BME280;3098;42.678;23.364;2022-11-03T07:10:24;95502.09;;;21.17;46.35
6134;BME280;3098;42.678;23.364;2022-11-03T07:12:52;95548.28;;;23.03;42.01
6134;BME280;3098;42.678;23.364;2022-11-03T07:15:25;95544.41;;;22.37;43.67
6134;BME280;3098;42.678;23.364;2022-11-03T07:17:56;95551.22;;;22.57;43.27
6134;BME280;3098;42.678;23.364;2022-11-03T07:20:23;95543.84;;;22.87;44.20
6134;BME280;3098;42.678;23.364;2022-11-03T07:22:51;95531.25;;;22.65;43.52
6134;BME280;3098;42.678;23.364;2022-11-03T07:25:20;95492.69;;;21.30;45.79
6134;BME280;3098;42.678;23.364;2022-11-03T07:27:49;95478.03;;;21.84;44.07
6134;BME280;3098;42.678;23.364;2022-11-03T07:30:20;95549.66;;;22.56;42.82
6134;BME280;3098;42.678;23.364;2022-11-03T07:32:52;95552.53;;;22.67;43.95
6134;BME280;3098;42.678;23.364;2022-11-03T07:35:30;95548.41;;;23.17;42.24
6134;BME280;3098;42.678;23.364;2022-11-03T07:38:01;95545.97;;;21.86;44.86
6134;BME280;3098;42.678;23.364;2022-11-03T07:40:33;95548.91;;;21.73;45.68
6134;BME280;3098;42.678;23.364;2022-11-03T07:43:21;95519.06;;;21.89;44.02
6134;BME280;3098;42.678;23.364;2022-11-03T07:45:55;95429.19;;;20.68;45.77
6134;BME280;3098;42.678;23.364;2022-11-03T07:48:25;95329.69;;;20.82;45.45
6134;BME280;3098;42.678;23.364;2022-11-03T07:50:56;95525.75;;;22.58;43.10
6134;BME280;3098;42.678;23.364;2022-11-03T07:53:32;95501.22;;;21.85;45.14
6134;BME280;3098;42.678;23.364;2022-11-03T07:56:01;95422.72;;;21.18;45.66
6134;BME280;3098;42.678;23.364;2022-11-03T07:58:41;95537.09;;;22.11;45.36
6134;BME280;3098;42.678;23.364;2022-11-03T08:01:21;95487.56;;;22.00;44.70
6134;BME280;3098;42.678;23.364;2022-11-03T08:03:49;95531.63;;;22.64;44.83
6134;BME280;3098;42.678;23.364;2022-11-03T08:06:18;95507.78;;;21.35;46.71
6134;BME280;3098;42.678;23.364;2022-11-03T08:08:45;95521.56;;;21.52;46.68
6134;BME280;3098;42.678;23.364;2022-11-03T08:11:12;95496.66;;;22.48;44.97
6134;BME280;3098;42.678;23.364;2022-11-03T08:13:40;95511.69;;;22.75;43.38
6134;BME280;3098;42.678;23.364;2022-11-03T08:16:08;95500.19;;;22.22;44.63
6134;BME280;3098;42.678;23.364;2022-11-03T08:18:35;95491.88;;;22.68;43.45
6134;BME280;3098;42.678;23.364;2022-11-03T08:21:02;95506.91;;;22.65;44.39
6134;BME280;3098;42.678;23.364;2022-11-03T08:23:31;95513.75;;;23.77;41.42
6134;BME280;3098;42.678;23.364;2022-11-03T08:25:59;95507.19;;;23.81;41.10
6134;BME280;3098;42.678;23.364;2022-11-03T08:28:26;95509.56;;;23.90;40.37
6134;BME280;3098;42.678;23.364;2022-11-03T08:30:54;95504.44;;;24.39;39.87
6134;BME280;3098;42.678;23.364;2022-11-03T08:33:26;95338.22;;;22.77;40.12
6134;BME280;3098;42.678;23.364;2022-11-03T08:35:54;95497.22;;;23.96;39.01
6134;BME280;3098;42.678;23.364;2022-11-03T08:38:21;95469.94;;;24.26;38.29
6134;BME280;3098;42.678;23.364;2022-11-03T08:40:50;95487.81;;;23.72;39.82
6134;BME280;3098;42.678;23.364;2022-11-03T08:43:17;95501.84;;;23.92;38.96
6134;BME280;3098;42.678;23.364;2022-11-03T08:45:44;95499.59;;;24.04;38.29
6134;BME280;3098;42.678;23.364;2022-11-03T08:48:12;95497.25;;;23.99;39.45
6134;BME280;3098;42.678;23.364;2022-11-03T08:50:39;95486.97;;;24.26;38.25
6134;BME280;3098;42.678;23.364;2022-11-03T08:53:06;95476.19;;;24.44;37.62
6134;BME280;3098;42.678;23.364;2022-11-03T08:55:43;95399.41;;;24.15;37.44
6134;BME280;3098;42.678;23.364;2022-11-03T08:58:11;95496.91;;;23.47;38.87
6134;BME280;3098;42.678;23.364;2022-11-03T09:00:38;95498.88;;;25.19;36.83
6134;BME280;3098;42.678;23.364;2022-11-03T09:03:05;95492.34;;;22.77;40.34
6134;BME280;3098;42.678;23.364;2022-11-03T09:05:33;95496.31;;;24.46;38.08
6134;BME280;3098;42.678;23.364;2022-11-03T09:08:03;95178.00;;;23.05;37.17
6134;BME280;3098;42.678;23.364;2022-11-03T09:10:30;95423.22;;;24.92;36.38
6134;BME280;3098;42.678;23.364;2022-11-03T09:12:58;95463.22;;;25.59;36.46
6134;BME280;3098;42.678;23.364;2022-11-03T09:15:26;95488.31;;;26.30;35.44
6134;BME280;3098;42.678;23.364;2022-11-03T09:17:54;95487.81;;;26.56;34.20
6134;BME280;3098;42.678;23.364;2022-11-03T09:20:25;95292.88;;;25.52;33.24
6134;BME280;3098;42.678;23.364;2022-11-03T09:22:54;95188.75;;;23.98;35.21
6134;BME280;3098;42.678;23.364;2022-11-03T09:25:21;95412.97;;;26.27;32.51
6134;BME280;3098;42.678;23.364;2022-11-03T09:27:48;95466.66;;;25.84;33.66
6134;BME280;3098;42.678;23.364;2022-11-03T09:30:16;95327.06;;;24.65;33.93
6134;BME280;3098;42.678;23.364;2022-11-03T09:32:45;95457.34;;;25.00;35.81
6134;BME280;3098;42.678;23.364;2022-11-03T09:35:12;95415.47;;;25.61;34.14
6134;BME280;3098;42.678;23.364;2022-11-03T09:37:41;95460.84;;;25.43;34.78
6134;BME280;3098;42.678;23.364;2022-11-03T09:40:09;95457.75;;;25.66;33.61
6134;BME280;3098;42.678;23.364;2022-11-03T09:42:39;95461.13;;;26.23;33.67
6134;BME280;3098;42.678;23.364;2022-11-03T09:45:09;95447.25;;;25.79;34.27
6134;BME280;3098;42.678;23.364;2022-11-03T09:47:38;95308.91;;;24.83;34.60
6134;BME280;3098;42.678;23.364;2022-11-03T09:50:11;95450.72;;;25.97;34.63
6134;BME280;3098;42.678;23.364;2022-11-03T09:52:39;95426.75;;;25.56;34.24
6134;BME280;3098;42.678;23.364;2022-11-03T09:55:12;95362.63;;;24.14;35.42
6134;BME280;3098;42.678;23.364;2022-11-03T09:57:41;95432.25;;;24.03;37.51
6134;BME280;3098;42.678;23.364;2022-11-03T10:00:15;95432.00;;;23.64;37.58
6134;BME280;3098;42.678;23.364;2022-11-03T10:02:45;95430.97;;;25.43;35.05
6134;BME280;3098;42.678;23.364;2022-11-03T10:05:16;95264.31;;;24.84;34.17
6134;BME280;3098;42.678;23.364;2022-11-03T10:07:45;95363.16;;;25.11;34.60
6134;BME280;3098;42.678;23.364;2022-11-03T10:10:18;95401.13;;;25.04;35.53
6134;BME280;3098;42.678;23.364;2022-11-03T10:12:47;95411.13;;;25.92;34.54
6134;BME280;3098;42.678;23.364;2022-11-03T10:15:18;95411.97;;;25.43;34.74
6134;BME280;3098;42.678;23.364;2022-11-03T10:17:46;95405.41;;;25.48;34.94
6134;BME280;3098;42.678;23.364;2022-11-03T10:20:18;95386.03;;;25.14;34.79
6134;BME280;3098;42.678;23.364;2022-11-03T10:22:49;95403.09;;;24.83;35.87
6134;BME280;3098;42.678;23.364;2022-11-03T10:25:33;95381.34;;;25.32;35.01
6134;BME280;3098;42.678;23.364;2022-11-03T10:28:18;95368.84;;;24.32;35.83
6134;BME280;3098;42.678;23.364;2022-11-03T10:30:54;95404.56;;;24.52;35.72
6134;BME280;3098;42.678;23.364;2022-11-03T10:33:30;95389.91;;;25.13;35.04
6134;BME280;3098;42.678;23.364;2022-11-03T10:36:01;95377.50;;;24.91;34.55
6134;BME280;3098;42.678;23.364;2022-11-03T10:38:30;95376.31;;;25.31;34.75
6134;BME280;3098;42.678;23.364;2022-11-03T10:41:13;95346.03;;;24.58;35.45
6134;BME280;3098;42.678;23.364;2022-11-03T10:43:58;95345.53;;;24.03;35.73
6134;BME280;3098;42.678;23.364;2022-11-03T10:46:27;95366.41;;;24.02;36.46
6134;BME280;3098;42.678;23.364;2022-11-03T10:49:02;95361.97;;;24.98;35.45
6134;BME280;3098;42.678;23.364;2022-11-03T10:51:32;95350.69;;;25.42;34.30
6134;BME280;3098;42.678;23.364;2022-11-03T10:54:00;95278.84;;;25.64;32.63
6134;BME280;3098;42.678;23.364;2022-11-03T10:56:29;95339.31;;;25.90;31.62
6134;BME280;3098;42.678;23.364;2022-11-03T10:58:58;95336.28;;;25.74;31.78
6134;BME280;3098;42.678;23.364;2022-11-03T11:01:28;95214.81;;;25.63;30.70
6134;BME280;3098;42.678;23.364;2022-11-03T11:03:55;95325.84;;;27.37;29.32
6134;BME280;3098;42.678;23.364;2022-11-03T11:06:24;95324.03;;;27.23;29.27
6134;BME280;3098;42.678;23.364;2022-11-03T11:08:58;95274.97;;;26.90;29.90
6134;BME280;3098;42.678;23.364;2022-11-03T11:11:27;95312.19;;;25.79;31.60
6134;BME280;3098;42.678;23.364;2022-11-03T11:14:31;95312.16;;;25.83;31.29
6134;BME280;3098;42.678;23.364;2022-11-03T11:17:02;95256.97;;;25.93;30.67
6134;BME280;3098;42.678;23.364;2022-11-03T11:22:37;95304.56;;;25.25;30.92
6134;BME280;3098;42.678;23.364;2022-11-03T11:25:06;95306.19;;;24.80;31.11
6134;BME280;3098;42.678;23.364;2022-11-03T11:27:56;95292.06;;;23.86;32.82
6134;BME280;3098;42.678;23.364;2022-11-03T11:33:42;95289.00;;;23.98;32.30
6134;BME280;3098;42.678;23.364;2022-11-03T11:36:27;95218.66;;;23.15;33.11
6134;BME280;3098;42.678;23.364;2022-11-03T11:38:56;95280.09;;;24.08;32.72
6134;BME280;3098;42.678;23.364;2022-11-03T11:44:58;95264.69;;;24.26;32.68
6134;BME280;3098;42.678;23.364;2022-11-03T11:47:48;95109.84;;;22.71;32.69
6134;BME280;3098;42.678;23.364;2022-11-03T11:50:29;95255.84;;;23.29;33.60
6134;BME280;3098;42.678;23.364;2022-11-03T11:53:09;95268.00;;;23.67;33.24
6134;BME280;3098;42.678;23.364;2022-11-03T11:55:40;95247.16;;;23.78;32.42
6134;BME280;3098;42.678;23.364;2022-11-03T11:58:21;95261.47;;;23.75;32.97
6134;BME280;3098;42.678;23.364;2022-11-03T12:00:54;95251.13;;;24.26;32.56
6134;BME280;3098;42.678;23.364;2022-11-03T12:03:27;95217.00;;;24.04;32.29
6134;BME280;3098;42.678;23.364;2022-11-03T12:05:58;95247.25;;;24.17;32.30
6134;BME280;3098;42.678;23.364;2022-11-03T12:08:28;95218.97;;;24.85;30.97
6134;BME280;3098;42.678;23.364;2022-11-03T12:11:00;95247.25;;;24.94;31.38
6134;BME280;3098;42.678;23.364;2022-11-03T12:13:40;95236.41;;;24.45;31.56
6134;BME280;3098;42.678;23.364;2022-11-03T12:18:52;95219.75;;;24.82;30.33
6134;BME280;3098;42.678;23.364;2022-11-03T12:21:46;95246.84;;;24.68;30.73
6134;BME280;3098;42.678;23.364;2022-11-03T12:24:34;95233.72;;;24.34;31.44
6134;BME280;3098;42.678;23.364;2022-11-03T12:27:18;95217.44;;;24.27;31.99
6134;BME280;3098;42.678;23.364;2022-11-03T12:29:58;95220.03;;;23.71;31.86
6134;BME280;3098;42.678;23.364;2022-11-03T12:32:30;95198.69;;;23.41;32.61
6134;BME280;3098;42.678;23.364;2022-11-03T12:34:59;95207.84;;;23.22;32.24
6134;BME280;3098;42.678;23.364;2022-11-03T12:37:30;95225.25;;;23.25;31.86
6134;BME280;3098;42.678;23.364;2022-11-03T12:39:58;95153.38;;;22.52;32.51
6134;BME280;3098;42.678;23.364;2022-11-03T12:42:27;95147.34;;;21.74;34.00
6134;BME280;3098;42.678;23.364;2022-11-03T12:44:54;95176.94;;;22.00;33.95
6134;BME280;3098;42.678;23.364;2022-11-03T12:47:23;95185.53;;;22.13;33.96
6134;BME280;3098;42.678;23.364;2022-11-03T12:49:54;95208.25;;;22.08;33.94
6134;BME280;3098;42.678;23.364;2022-11-03T12:52:23;95174.50;;;21.88;34.20
6134;BME280;3098;42.678;23.364;2022-11-03T12:54:52;95155.53;;;21.81;34.66
6134;BME280;3098;42.678;23.364;2022-11-03T12:57:22;95196.56;;;21.94;34.82
6134;BME280;3098;42.678;23.364;2022-11-03T12:59:51;95196.56;;;21.94;34.38
6134;BME280;3098;42.678;23.364;2022-11-03T13:02:19;95196.19;;;21.58;35.46
6134;BME280;3098;42.678;23.364;2022-11-03T13:04:46;95195.50;;;21.65;35.73
6134;BME280;3098;42.678;23.364;2022-11-03T13:07:15;95192.84;;;21.72;35.61
6134;BME280;3098;42.678;23.364;2022-11-03T13:09:42;95176.56;;;21.25;36.02
6134;BME280;3098;42.678;23.364;2022-11-03T13:12:11;95188.56;;;21.31;36.67
6134;BME280;3098;42.678;23.364;2022-11-03T13:14:56;95137.72;;;21.33;35.91
6134;BME280;3098;42.678;23.364;2022-11-03T13:17:24;95182.22;;;21.49;36.63
6134;BME280;3098;42.678;23.364;2022-11-03T13:19:51;95096.81;;;20.94;36.28
6134;BME280;3098;42.678;23.364;2022-11-03T13:22:20;95152.28;;;21.25;36.22
6134;BME280;3098;42.678;23.364;2022-11-03T13:24:47;95178.06;;;21.59;36.01
6134;BME280;3098;42.678;23.364;2022-11-03T13:27:14;95171.66;;;21.74;36.01
6134;BME280;3098;42.678;23.364;2022-11-03T13:29:41;95175.16;;;21.78;35.84
6134;BME280;3098;42.678;23.364;2022-11-03T13:32:09;95177.13;;;21.81;35.47
6134;BME280;3098;42.678;23.364;2022-11-03T13:34:36;95166.41;;;21.88;35.38
6134;BME280;3098;42.678;23.364;2022-11-03T13:37:03;95147.03;;;21.79;35.37
6134;BME280;3098;42.678;23.364;2022-11-03T13:39:32;95169.25;;;22.06;35.07
6134;BME280;3098;42.678;23.364;2022-11-03T13:41:59;95166.59;;;22.09;35.13
6134;BME280;3098;42.678;23.364;2022-11-03T13:44:27;95144.13;;;21.98;35.25
6134;BME280;3098;42.678;23.364;2022-11-03T13:46:55;95107.63;;;21.71;35.13